sensor_id;sensor_type;location;lat;lon;timestamp;P1;durP1;ratioP1;P2;durP2;ratioP2
32250;SDS011;41295;48.518;9.206;2023-02-28T00:00:01;7.60;;;4.20;;
32250;SDS011;41295;48.518;9.206;2023-02-28T00:02:11;7.07;;;4.53;;
32250;SDS011;41295;48.518;9.206;2023-02-28T00:04:13;6.35;;;3.70;;
32250;SDS011;41295;48.518;9.206;2023-02-28T00:06:16;7.60;;;4.10;;
32250;SDS011;41295;48.518;9.206;2023-02-28T00:08:19;5.75;;;3.45;;
32250;SDS011;41295;48.518;9.206;2023-02-28T00:10:22;7.63;;;3.88;;
32250;SDS011;41295;48.518;9.206;2023-02-28T00:12:27;6.28;;;3.75;;
32250;SDS011;41295;48.518;9.206;2023-02-28T00:14:30;5.55;;;3.40;;
32250;SDS011;41295;48.518;9.206;2023-02-28T00:16:34;8.38;;;4.30;;
32250;SDS011;41295;48.518;9.206;2023-02-28T00:18:37;9.52;;;4.60;;
32250;SDS011;41295;48.518;9.206;2023-02-28T00:20:39;7.68;;;3.80;;
32250;SDS011;41295;48.518;9.206;2023-02-28T00:22:43;7.43;;;3.40;;
32250;SDS011;41295;48.518;9.206;2023-02-28T00:24:47;6.78;;;4.07;;
32250;SDS011;41295;48.518;9.206;2023-02-28T00:26:50;6.95;;;3.90;;
32250;SDS011;41295;48.518;9.206;2023-02-28T00:28:52;8.02;;;4.07;;
32250;SDS011;41295;48.518;9.206;2023-02-28T00:30:55;5.15;;;3.67;;
32250;SDS011;41295;48.518;9.206;2023-02-28T00:33:00;6.60;;;3.75;;
32250;SDS011;41295;48.518;9.206;2023-02-28T00:35:03;7.40;;;4.07;;
32250;SDS011;41295;48.518;9.206;2023-02-28T00:37:06;7.80;;;4.13;;
32250;SDS011;41295;48.518;9.206;2023-02-28T00:39:13;6.63;;;3.47;;
32250;SDS011;41295;48.518;9.206;2023-02-28T00:41:16;5.80;;;3.88;;
32250;SDS011;41295;48.518;9.206;2023-02-28T00:43:18;7.63;;;4.38;;
32250;SDS011;41295;48.518;9.206;2023-02-28T00:45:21;6.65;;;4.05;;
32250;SDS011;41295;48.518;9.206;2023-02-28T00:47:23;11.05;;;4.10;;
32250;SDS011;41295;48.518;9.206;2023-02-28T00:49:27;9.70;;;3.90;;
32250;SDS011;41295;48.518;9.206;2023-02-28T00:51:30;6.85;;;3.92;;
32250;SDS011;41295;48.518;9.206;2023-02-28T00:53:33;8.95;;;4.18;;
32250;SDS011;41295;48.518;9.206;2023-02-28T00:55:35;8.88;;;3.85;;
32250;SDS011;41295;48.518;9.206;2023-02-28T00:57:38;7.50;;;4.05;;
32250;SDS011;41295;48.518;9.206;2023-02-28T00:59:41;6.57;;;4.00;;
32250;SDS011;41295;48.518;9.206;2023-02-28T01:01:44;7.65;;;3.78;;
32250;SDS011;41295;48.518;9.206;2023-02-28T01:03:48;8.70;;;3.65;;
32250;SDS011;41295;48.518;9.206;2023-02-28T01:05:52;7.68;;;3.92;;
32250;SDS011;41295;48.518;9.206;2023-02-28T01:07:55;8.55;;;4.25;;
32250;SDS011;41295;48.518;9.206;2023-02-28T01:09:57;6.13;;;3.65;;
32250;SDS011;41295;48.518;9.206;2023-02-28T01:12:00;7.22;;;4.20;;
32250;SDS011;41295;48.518;9.206;2023-02-28T01:14:03;7.78;;;3.53;;
32250;SDS011;41295;48.518;9.206;2023-02-28T01:16:06;6.55;;;4.00;;
32250;SDS011;41295;48.518;9.206;2023-02-28T01:18:09;7.07;;;3.90;;
32250;SDS011;41295;48.518;9.206;2023-02-28T01:20:12;6.40;;;3.90;;
32250;SDS011;41295;48.518;9.206;2023-02-28T01:22:18;7.38;;;3.83;;
32250;SDS011;41295;48.518;9.206;2023-02-28T01:24:21;9.77;;;3.83;;
32250;SDS011;41295;48.518;9.206;2023-02-28T01:26:24;12.07;;;4.45;;
32250;SDS011;41295;48.518;9.206;2023-02-28T01:28:27;6.60;;;3.67;;
32250;SDS011;41295;48.518;9.206;2023-02-28T01:30:31;7.93;;;3.78;;
32250;SDS011;41295;48.518;9.206;2023-02-28T01:32:33;6.30;;;3.92;;
32250;SDS011;41295;48.518;9.206;2023-02-28T01:34:36;8.00;;;3.70;;
32250;SDS011;41295;48.518;9.206;2023-02-28T01:36:39;7.47;;;3.75;;
32250;SDS011;41295;48.518;9.206;2023-02-28T01:38:43;6.00;;;3.80;;
32250;SDS011;41295;48.518;9.206;2023-02-28T01:40:46;7.18;;;3.92;;
32250;SDS011;41295;48.518;9.206;2023-02-28T01:42:48;7.60;;;3.95;;
32250;SDS011;41295;48.518;9.206;2023-02-28T01:45:01;8.05;;;3.75;;
32250;SDS011;41295;48.518;9.206;2023-02-28T01:47:08;7.80;;;3.97;;
32250;SDS011;41295;48.518;9.206;2023-02-28T01:49:12;6.10;;;4.03;;
32250;SDS011;41295;48.518;9.206;2023-02-28T01:51:18;8.40;;;4.50;;
32250;SDS011;41295;48.518;9.206;2023-02-28T01:53:26;11.38;;;4.20;;
32250;SDS011;41295;48.518;9.206;2023-02-28T01:55:33;7.22;;;3.42;;
32250;SDS011;41295;48.518;9.206;2023-02-28T01:57:38;5.93;;;3.60;;
32250;SDS011;41295;48.518;9.206;2023-02-28T01:59:45;6.65;;;3.85;;
32250;SDS011;41295;48.518;9.206;2023-02-28T02:01:52;7.75;;;3.90;;
32250;SDS011;41295;48.518;9.206;2023-02-28T02:03:56;4.90;;;3.42;;
32250;SDS011;41295;48.518;9.206;2023-02-28T02:06:03;9.30;;;3.95;;
32250;SDS011;41295;48.518;9.206;2023-02-28T02:08:06;7.00;;;3.85;;
32250;SDS011;41295;48.518;9.206;2023-02-28T02:10:12;9.80;;;3.88;;
32250;SDS011;41295;48.518;9.206;2023-02-28T02:12:21;9.32;;;4.15;;
32250;SDS011;41295;48.518;9.206;2023-02-28T02:14:34;8.98;;;4.53;;
32250;SDS011;41295;48.518;9.206;2023-02-28T02:16:52;13.40;;;4.20;;
32250;SDS011;41295;48.518;9.206;2023-02-28T02:19:11;7.15;;;4.13;;
32250;SDS011;41295;48.518;9.206;2023-02-28T02:21:33;10.27;;;4.47;;
32250;SDS011;41295;48.518;9.206;2023-02-28T02:24:03;6.18;;;3.88;;
32250;SDS011;41295;48.518;9.206;2023-02-28T02:26:39;6.28;;;3.80;;
32250;SDS011;41295;48.518;9.206;2023-02-28T02:29:00;9.52;;;4.63;;
32250;SDS011;41295;48.518;9.206;2023-02-28T02:31:22;7.93;;;4.05;;
32250;SDS011;41295;48.518;9.206;2023-02-28T02:36:21;8.63;;;3.83;;
32250;SDS011;41295;48.518;9.206;2023-02-28T02:38:30;7.90;;;4.00;;
32250;SDS011;41295;48.518;9.206;2023-02-28T02:40:36;6.93;;;4.32;;
32250;SDS011;41295;48.518;9.206;2023-02-28T02:42:45;9.50;;;4.07;;
32250;SDS011;41295;48.518;9.206;2023-02-28T02:44:55;7.07;;;4.18;;
32250;SDS011;41295;48.518;9.206;2023-02-28T02:47:03;7.90;;;4.45;;
32250;SDS011;41295;48.518;9.206;2023-02-28T02:49:11;8.32;;;4.05;;
32250;SDS011;41295;48.518;9.206;2023-02-28T02:51:18;6.10;;;3.80;;
32250;SDS011;41295;48.518;9.206;2023-02-28T02:53:27;8.10;;;4.60;;
32250;SDS011;41295;48.518;9.206;2023-02-28T02:55:33;6.05;;;3.78;;
32250;SDS011;41295;48.518;9.206;2023-02-28T02:57:40;7.78;;;4.03;;
32250;SDS011;41295;48.518;9.206;2023-02-28T02:59:48;7.68;;;4.18;;
32250;SDS011;41295;48.518;9.206;2023-02-28T03:01:54;10.10;;;4.35;;
32250;SDS011;41295;48.518;9.206;2023-02-28T03:04:01;6.07;;;3.95;;
32250;SDS011;41295;48.518;9.206;2023-02-28T03:06:06;6.13;;;3.97;;
32250;SDS011;41295;48.518;9.206;2023-02-28T03:08:10;9.52;;;4.22;;
32250;SDS011;41295;48.518;9.206;2023-02-28T03:10:30;9.93;;;4.47;;
32250;SDS011;41295;48.518;9.206;2023-02-28T03:12:39;6.38;;;4.00;;
32250;SDS011;41295;48.518;9.206;2023-02-28T03:14:50;7.88;;;4.13;;
32250;SDS011;41295;48.518;9.206;2023-02-28T03:17:16;8.52;;;4.35;;
32250;SDS011;41295;48.518;9.206;2023-02-28T03:19:33;9.82;;;5.03;;
32250;SDS011;41295;48.518;9.206;2023-02-28T03:21:46;6.63;;;3.72;;
32250;SDS011;41295;48.518;9.206;2023-02-28T03:24:00;12.52;;;4.45;;
32250;SDS011;41295;48.518;9.206;2023-02-28T03:26:12;8.18;;;4.22;;
32250;SDS011;41295;48.518;9.206;2023-02-28T03:28:22;9.77;;;4.60;;
32250;SDS011;41295;48.518;9.206;2023-02-28T03:30:36;9.13;;;4.50;;
32250;SDS011;41295;48.518;9.206;2023-02-28T03:32:46;9.57;;;4.60;;
32250;SDS011;41295;48.518;9.206;2023-02-28T03:34:56;9.23;;;4.57;;
32250;SDS011;41295;48.518;9.206;2023-02-28T03:37:07;10.07;;;4.15;;
32250;SDS011;41295;48.518;9.206;2023-02-28T03:39:16;10.95;;;5.00;;
32250;SDS011;41295;48.518;9.206;2023-02-28T03:41:23;9.10;;;4.60;;
32250;SDS011;41295;48.518;9.206;2023-02-28T03:43:31;9.70;;;4.97;;
32250;SDS011;41295;48.518;9.206;2023-02-28T03:45:37;10.98;;;4.78;;
32250;SDS011;41295;48.518;9.206;2023-02-28T03:47:43;6.78;;;4.18;;
32250;SDS011;41295;48.518;9.206;2023-02-28T03:49:49;7.95;;;4.60;;
32250;SDS011;41295;48.518;9.206;2023-02-28T03:51:56;7.70;;;4.90;;
32250;SDS011;41295;48.518;9.206;2023-02-28T03:54:04;8.10;;;5.00;;
32250;SDS011;41295;48.518;9.206;2023-02-28T03:56:17;6.78;;;4.82;;
32250;SDS011;41295;48.518;9.206;2023-02-28T03:58:24;7.00;;;4.50;;
32250;SDS011;41295;48.518;9.206;2023-02-28T04:00:33;7.72;;;4.47;;
32250;SDS011;41295;48.518;9.206;2023-02-28T04:02:38;8.82;;;4.80;;
32250;SDS011;41295;48.518;9.206;2023-02-28T04:04:41;8.65;;;4.80;;
32250;SDS011;41295;48.518;9.206;2023-02-28T04:06:50;9.85;;;4.82;;
32250;SDS011;41295;48.518;9.206;2023-02-28T04:08:53;5.47;;;4.20;;
32250;SDS011;41295;48.518;9.206;2023-02-28T04:10:57;8.55;;;5.25;;
32250;SDS011;41295;48.518;9.206;2023-02-28T04:13:04;8.38;;;4.60;;
32250;SDS011;41295;48.518;9.206;2023-02-28T04:15:07;8.80;;;4.63;;
32250;SDS011;41295;48.518;9.206;2023-02-28T04:17:11;10.55;;;5.53;;
32250;SDS011;41295;48.518;9.206;2023-02-28T04:19:14;8.43;;;5.00;;
32250;SDS011;41295;48.518;9.206;2023-02-28T04:21:17;11.30;;;4.93;;
32250;SDS011;41295;48.518;9.206;2023-02-28T04:23:22;7.82;;;4.75;;
32250;SDS011;41295;48.518;9.206;2023-02-28T04:25:24;9.40;;;5.72;;
32250;SDS011;41295;48.518;9.206;2023-02-28T04:27:27;9.15;;;4.88;;
32250;SDS011;41295;48.518;9.206;2023-02-28T04:29:34;10.50;;;5.78;;
32250;SDS011;41295;48.518;9.206;2023-02-28T04:31:37;8.57;;;5.13;;
32250;SDS011;41295;48.518;9.206;2023-02-28T04:33:40;11.38;;;5.32;;
32250;SDS011;41295;48.518;9.206;2023-02-28T04:35:42;6.90;;;4.82;;
32250;SDS011;41295;48.518;9.206;2023-02-28T04:37:45;7.18;;;4.57;;
32250;SDS011;41295;48.518;9.206;2023-02-28T04:39:47;11.07;;;5.78;;
32250;SDS011;41295;48.518;9.206;2023-02-28T04:41:50;8.15;;;5.10;;
32250;SDS011;41295;48.518;9.206;2023-02-28T04:43:52;8.75;;;5.35;;
32250;SDS011;41295;48.518;9.206;2023-02-28T04:46:00;8.88;;;5.28;;
32250;SDS011;41295;48.518;9.206;2023-02-28T04:48:04;12.55;;;5.55;;
32250;SDS011;41295;48.518;9.206;2023-02-28T04:50:07;11.80;;;5.47;;
32250;SDS011;41295;48.518;9.206;2023-02-28T04:52:10;10.07;;;5.55;;
32250;SDS011;41295;48.518;9.206;2023-02-28T04:54:14;13.85;;;6.13;;
32250;SDS011;41295;48.518;9.206;2023-02-28T04:56:17;8.95;;;5.40;;
32250;SDS011;41295;48.518;9.206;2023-02-28T04:58:20;10.93;;;5.45;;
32250;SDS011;41295;48.518;9.206;2023-02-28T05:00:24;8.85;;;5.22;;
32250;SDS011;41295;48.518;9.206;2023-02-28T05:02:28;11.90;;;5.53;;
32250;SDS011;41295;48.518;9.206;2023-02-28T05:04:31;12.77;;;6.07;;
32250;SDS011;41295;48.518;9.206;2023-02-28T05:06:35;10.18;;;5.50;;
32250;SDS011;41295;48.518;9.206;2023-02-28T05:08:37;10.02;;;5.82;;
32250;SDS011;41295;48.518;9.206;2023-02-28T05:10:40;8.60;;;5.22;;
32250;SDS011;41295;48.518;9.206;2023-02-28T05:12:43;13.93;;;5.97;;
32250;SDS011;41295;48.518;9.206;2023-02-28T05:14:45;10.43;;;5.78;;
32250;SDS011;41295;48.518;9.206;2023-02-28T05:16:48;9.43;;;6.22;;
32250;SDS011;41295;48.518;9.206;2023-02-28T05:18:52;11.00;;;5.90;;
32250;SDS011;41295;48.518;9.206;2023-02-28T05:20:55;12.45;;;6.53;;
32250;SDS011;41295;48.518;9.206;2023-02-28T05:22:58;11.82;;;6.28;;
32250;SDS011;41295;48.518;9.206;2023-02-28T05:25:02;10.02;;;5.72;;
32250;SDS011;41295;48.518;9.206;2023-02-28T05:27:05;13.95;;;6.30;;
32250;SDS011;41295;48.518;9.206;2023-02-28T05:29:08;11.23;;;5.93;;
32250;SDS011;41295;48.518;9.206;2023-02-28T05:31:11;10.13;;;6.10;;
32250;SDS011;41295;48.518;9.206;2023-02-28T05:33:15;11.30;;;5.65;;
32250;SDS011;41295;48.518;9.206;2023-02-28T05:35:19;23.80;;;6.47;;
32250;SDS011;41295;48.518;9.206;2023-02-28T05:37:21;10.32;;;6.13;;
32250;SDS011;41295;48.518;9.206;2023-02-28T05:39:24;12.18;;;6.35;;
32250;SDS011;41295;48.518;9.206;2023-02-28T05:41:26;12.45;;;6.47;;
32250;SDS011;41295;48.518;9.206;2023-02-28T05:43:29;11.75;;;6.10;;
32250;SDS011;41295;48.518;9.206;2023-02-28T05:45:32;12.20;;;6.47;;
32250;SDS011;41295;48.518;9.206;2023-02-28T05:47:35;14.38;;;6.65;;
32250;SDS011;41295;48.518;9.206;2023-02-28T05:49:38;10.02;;;6.50;;
32250;SDS011;41295;48.518;9.206;2023-02-28T05:51:42;13.32;;;6.78;;
32250;SDS011;41295;48.518;9.206;2023-02-28T05:53:44;14.05;;;7.15;;
32250;SDS011;41295;48.518;9.206;2023-02-28T05:55:48;9.45;;;6.53;;
32250;SDS011;41295;48.518;9.206;2023-02-28T05:57:52;10.27;;;6.55;;
32250;SDS011;41295;48.518;9.206;2023-02-28T05:59:55;17.70;;;7.18;;
32250;SDS011;41295;48.518;9.206;2023-02-28T06:01:58;15.18;;;6.88;;
32250;SDS011;41295;48.518;9.206;2023-02-28T06:04:01;13.93;;;7.85;;
32250;SDS011;41295;48.518;9.206;2023-02-28T06:06:05;14.43;;;7.35;;
32250;SDS011;41295;48.518;9.206;2023-02-28T06:08:09;11.73;;;6.68;;
32250;SDS011;41295;48.518;9.206;2023-02-28T06:10:12;11.05;;;6.90;;
32250;SDS011;41295;48.518;9.206;2023-02-28T06:12:16;13.85;;;7.07;;
32250;SDS011;41295;48.518;9.206;2023-02-28T06:14:19;11.02;;;6.80;;
32250;SDS011;41295;48.518;9.206;2023-02-28T06:16:22;11.57;;;7.03;;
32250;SDS011;41295;48.518;9.206;2023-02-28T06:18:25;10.32;;;6.72;;
32250;SDS011;41295;48.518;9.206;2023-02-28T06:20:28;15.85;;;7.68;;
32250;SDS011;41295;48.518;9.206;2023-02-28T06:22:31;13.90;;;7.57;;
32250;SDS011;41295;48.518;9.206;2023-02-28T06:24:35;12.05;;;7.35;;
32250;SDS011;41295;48.518;9.206;2023-02-28T06:26:37;9.82;;;7.05;;
32250;SDS011;41295;48.518;9.206;2023-02-28T06:28:40;15.32;;;8.48;;
32250;SDS011;41295;48.518;9.206;2023-02-28T06:30:43;11.85;;;7.45;;
32250;SDS011;41295;48.518;9.206;2023-02-28T06:32:46;14.68;;;7.43;;
32250;SDS011;41295;48.518;9.206;2023-02-28T06:34:50;13.10;;;7.28;;
32250;SDS011;41295;48.518;9.206;2023-02-28T06:36:54;13.63;;;7.28;;
32250;SDS011;41295;48.518;9.206;2023-02-28T06:38:56;12.38;;;7.50;;
32250;SDS011;41295;48.518;9.206;2023-02-28T06:41:00;13.40;;;7.65;;
32250;SDS011;41295;48.518;9.206;2023-02-28T06:43:03;13.35;;;7.68;;
32250;SDS011;41295;48.518;9.206;2023-02-28T06:45:06;15.27;;;8.38;;
32250;SDS011;41295;48.518;9.206;2023-02-28T06:47:10;13.98;;;8.05;;
32250;SDS011;41295;48.518;9.206;2023-02-28T06:49:13;16.08;;;7.63;;
32250;SDS011;41295;48.518;9.206;2023-02-28T06:51:17;13.55;;;7.60;;
32250;SDS011;41295;48.518;9.206;2023-02-28T06:53:21;13.77;;;8.45;;
32250;SDS011;41295;48.518;9.206;2023-02-28T06:55:23;17.10;;;7.80;;
32250;SDS011;41295;48.518;9.206;2023-02-28T06:57:29;14.13;;;8.15;;
32250;SDS011;41295;48.518;9.206;2023-02-28T06:59:33;16.15;;;8.90;;
32250;SDS011;41295;48.518;9.206;2023-02-28T07:01:37;12.65;;;7.80;;
32250;SDS011;41295;48.518;9.206;2023-02-28T07:03:40;20.83;;;8.20;;
32250;SDS011;41295;48.518;9.206;2023-02-28T07:05:42;18.00;;;8.25;;
32250;SDS011;41295;48.518;9.206;2023-02-28T07:07:45;14.57;;;8.23;;
32250;SDS011;41295;48.518;9.206;2023-02-28T07:09:48;12.77;;;8.02;;
32250;SDS011;41295;48.518;9.206;2023-02-28T07:11:51;12.98;;;7.60;;
32250;SDS011;41295;48.518;9.206;2023-02-28T07:13:55;15.63;;;8.35;;
32250;SDS011;41295;48.518;9.206;2023-02-28T07:15:59;18.13;;;8.25;;
32250;SDS011;41295;48.518;9.206;2023-02-28T07:18:03;12.55;;;8.00;;
32250;SDS011;41295;48.518;9.206;2023-02-28T07:20:06;13.13;;;7.43;;
32250;SDS011;41295;48.518;9.206;2023-02-28T07:22:09;16.92;;;9.27;;
32250;SDS011;41295;48.518;9.206;2023-02-28T07:24:15;13.57;;;8.02;;
32250;SDS011;41295;48.518;9.206;2023-02-28T07:26:19;16.42;;;8.73;;
32250;SDS011;41295;48.518;9.206;2023-02-28T07:28:22;11.98;;;8.13;;
32250;SDS011;41295;48.518;9.206;2023-02-28T07:30:26;25.30;;;8.85;;
32250;SDS011;41295;48.518;9.206;2023-02-28T07:32:29;16.42;;;8.85;;
32250;SDS011;41295;48.518;9.206;2023-02-28T07:34:31;15.55;;;9.00;;
32250;SDS011;41295;48.518;9.206;2023-02-28T07:36:34;13.43;;;8.35;;
32250;SDS011;41295;48.518;9.206;2023-02-28T07:38:37;14.32;;;8.82;;
32250;SDS011;41295;48.518;9.206;2023-02-28T07:40:39;20.80;;;8.68;;
32250;SDS011;41295;48.518;9.206;2023-02-28T07:42:42;15.70;;;8.55;;
32250;SDS011;41295;48.518;9.206;2023-02-28T07:44:45;16.45;;;9.15;;
32250;SDS011;41295;48.518;9.206;2023-02-28T07:46:49;18.17;;;10.50;;
32250;SDS011;41295;48.518;9.206;2023-02-28T07:48:52;23.02;;;10.20;;
32250;SDS011;41295;48.518;9.206;2023-02-28T07:50:56;30.73;;;11.07;;
32250;SDS011;41295;48.518;9.206;2023-02-28T07:52:59;25.00;;;11.02;;
32250;SDS011;41295;48.518;9.206;2023-02-28T07:55:01;18.90;;;10.40;;
32250;SDS011;41295;48.518;9.206;2023-02-28T07:57:05;15.77;;;10.18;;
32250;SDS011;41295;48.518;9.206;2023-02-28T07:59:08;24.83;;;10.30;;
32250;SDS011;41295;48.518;9.206;2023-02-28T08:01:11;18.63;;;9.93;;
32250;SDS011;41295;48.518;9.206;2023-02-28T08:03:15;19.05;;;10.02;;
32250;SDS011;41295;48.518;9.206;2023-02-28T08:05:19;24.45;;;10.93;;
32250;SDS011;41295;48.518;9.206;2023-02-28T08:07:22;17.13;;;10.27;;
32250;SDS011;41295;48.518;9.206;2023-02-28T08:09:25;18.65;;;10.13;;
32250;SDS011;41295;48.518;9.206;2023-02-28T08:11:28;21.42;;;11.18;;
32250;SDS011;41295;48.518;9.206;2023-02-28T08:13:31;17.17;;;10.57;;
32250;SDS011;41295;48.518;9.206;2023-02-28T08:15:34;19.58;;;11.00;;
32250;SDS011;41295;48.518;9.206;2023-02-28T08:17:37;17.27;;;10.10;;
32250;SDS011;41295;48.518;9.206;2023-02-28T08:19:41;19.25;;;9.70;;
32250;SDS011;41295;48.518;9.206;2023-02-28T08:21:44;18.25;;;10.43;;
32250;SDS011;41295;48.518;9.206;2023-02-28T08:23:47;31.92;;;11.68;;
32250;SDS011;41295;48.518;9.206;2023-02-28T08:25:52;19.83;;;11.25;;
32250;SDS011;41295;48.518;9.206;2023-02-28T08:27:55;22.92;;;10.38;;
32250;SDS011;41295;48.518;9.206;2023-02-28T08:29:58;18.73;;;11.18;;
32250;SDS011;41295;48.518;9.206;2023-02-28T08:32:00;16.65;;;10.50;;
32250;SDS011;41295;48.518;9.206;2023-02-28T08:34:04;19.30;;;10.68;;
32250;SDS011;41295;48.518;9.206;2023-02-28T08:36:09;18.33;;;11.40;;
32250;SDS011;41295;48.518;9.206;2023-02-28T08:38:12;18.92;;;10.27;;
32250;SDS011;41295;48.518;9.206;2023-02-28T08:40:15;19.08;;;11.10;;
32250;SDS011;41295;48.518;9.206;2023-02-28T08:42:19;18.70;;;10.82;;
32250;SDS011;41295;48.518;9.206;2023-02-28T08:44:22;20.70;;;11.32;;
32250;SDS011;41295;48.518;9.206;2023-02-28T08:46:24;21.05;;;11.32;;
32250;SDS011;41295;48.518;9.206;2023-02-28T08:48:29;20.17;;;11.05;;
32250;SDS011;41295;48.518;9.206;2023-02-28T08:50:32;22.75;;;11.18;;
32250;SDS011;41295;48.518;9.206;2023-02-28T08:52:36;23.70;;;11.00;;
32250;SDS011;41295;48.518;9.206;2023-02-28T08:54:39;16.25;;;11.15;;
32250;SDS011;41295;48.518;9.206;2023-02-28T08:56:42;18.38;;;11.00;;
32250;SDS011;41295;48.518;9.206;2023-02-28T08:58:45;20.80;;;10.60;;
32250;SDS011;41295;48.518;9.206;2023-02-28T09:00:49;17.08;;;10.85;;
32250;SDS011;41295;48.518;9.206;2023-02-28T09:02:52;18.75;;;10.50;;
32250;SDS011;41295;48.518;9.206;2023-02-28T09:04:55;17.70;;;10.32;;
32250;SDS011;41295;48.518;9.206;2023-02-28T09:06:58;15.27;;;9.93;;
32250;SDS011;41295;48.518;9.206;2023-02-28T09:09:02;25.55;;;11.73;;
32250;SDS011;41295;48.518;9.206;2023-02-28T09:11:07;24.60;;;12.82;;
32250;SDS011;41295;48.518;9.206;2023-02-28T09:13:09;17.33;;;10.48;;
32250;SDS011;41295;48.518;9.206;2023-02-28T09:15:12;20.88;;;11.32;;
32250;SDS011;41295;48.518;9.206;2023-02-28T09:17:15;20.38;;;11.10;;
32250;SDS011;41295;48.518;9.206;2023-02-28T09:19:18;19.67;;;11.15;;
32250;SDS011;41295;48.518;9.206;2023-02-28T09:21:20;19.80;;;11.38;;
32250;SDS011;41295;48.518;9.206;2023-02-28T09:23:23;18.73;;;11.82;;
32250;SDS011;41295;48.518;9.206;2023-02-28T09:25:28;17.45;;;11.02;;
32250;SDS011;41295;48.518;9.206;2023-02-28T09:27:30;19.67;;;10.90;;
32250;SDS011;41295;48.518;9.206;2023-02-28T09:29:34;18.95;;;11.52;;
32250;SDS011;41295;48.518;9.206;2023-02-28T09:31:37;20.30;;;10.90;;
32250;SDS011;41295;48.518;9.206;2023-02-28T09:33:39;25.23;;;10.75;;
32250;SDS011;41295;48.518;9.206;2023-02-28T09:35:42;17.73;;;11.60;;
32250;SDS011;41295;48.518;9.206;2023-02-28T09:37:45;18.58;;;11.00;;
32250;SDS011;41295;48.518;9.206;2023-02-28T09:39:48;19.02;;;11.02;;
32250;SDS011;41295;48.518;9.206;2023-02-28T09:41:54;20.30;;;11.65;;
32250;SDS011;41295;48.518;9.206;2023-02-28T09:43:59;17.77;;;11.50;;
32250;SDS011;41295;48.518;9.206;2023-02-28T09:46:07;18.40;;;11.75;;
32250;SDS011;41295;48.518;9.206;2023-02-28T09:48:17;20.10;;;10.95;;
32250;SDS011;41295;48.518;9.206;2023-02-28T09:50:28;21.67;;;11.18;;
32250;SDS011;41295;48.518;9.206;2023-02-28T09:52:36;20.80;;;10.88;;
32250;SDS011;41295;48.518;9.206;2023-02-28T09:54:38;16.10;;;10.75;;
32250;SDS011;41295;48.518;9.206;2023-02-28T09:56:41;23.48;;;11.73;;
32250;SDS011;41295;48.518;9.206;2023-02-28T09:58:46;21.67;;;11.63;;
32250;SDS011;41295;48.518;9.206;2023-02-28T10:00:56;21.33;;;11.93;;
32250;SDS011;41295;48.518;9.206;2023-02-28T10:05:31;23.92;;;11.73;;
32250;SDS011;41295;48.518;9.206;2023-02-28T10:07:43;20.25;;;11.18;;
32250;SDS011;41295;48.518;9.206;2023-02-28T10:10:01;29.58;;;12.07;;
32250;SDS011;41295;48.518;9.206;2023-02-28T10:12:08;21.02;;;12.15;;
32250;SDS011;41295;48.518;9.206;2023-02-28T10:14:15;22.20;;;12.23;;
32250;SDS011;41295;48.518;9.206;2023-02-28T10:16:22;24.85;;;11.75;;
32250;SDS011;41295;48.518;9.206;2023-02-28T10:18:30;19.05;;;11.27;;
32250;SDS011;41295;48.518;9.206;2023-02-28T10:20:42;18.13;;;11.27;;
32250;SDS011;41295;48.518;9.206;2023-02-28T10:22:50;20.42;;;11.52;;
32250;SDS011;41295;48.518;9.206;2023-02-28T10:24:59;18.17;;;10.73;;
32250;SDS011;41295;48.518;9.206;2023-02-28T10:27:12;19.35;;;11.48;;
32250;SDS011;41295;48.518;9.206;2023-02-28T10:29:17;22.65;;;12.20;;
32250;SDS011;41295;48.518;9.206;2023-02-28T10:31:20;19.38;;;11.98;;
32250;SDS011;41295;48.518;9.206;2023-02-28T10:33:28;21.80;;;12.57;;
32250;SDS011;41295;48.518;9.206;2023-02-28T10:35:32;20.08;;;11.75;;
32250;SDS011;41295;48.518;9.206;2023-02-28T10:37:36;18.38;;;11.93;;
32250;SDS011;41295;48.518;9.206;2023-02-28T10:39:40;18.23;;;11.30;;
32250;SDS011;41295;48.518;9.206;2023-02-28T10:41:44;17.50;;;11.77;;
32250;SDS011;41295;48.518;9.206;2023-02-28T10:43:47;20.23;;;11.95;;
32250;SDS011;41295;48.518;9.206;2023-02-28T10:45:55;17.92;;;11.27;;
32250;SDS011;41295;48.518;9.206;2023-02-28T10:48:01;16.55;;;11.52;;
32250;SDS011;41295;48.518;9.206;2023-02-28T10:50:06;23.90;;;11.80;;
32250;SDS011;41295;48.518;9.206;2023-02-28T10:52:39;19.63;;;11.30;;
32250;SDS011;41295;48.518;9.206;2023-02-28T10:54:42;18.48;;;10.88;;
32250;SDS011;41295;48.518;9.206;2023-02-28T10:56:45;17.63;;;10.68;;
32250;SDS011;41295;48.518;9.206;2023-02-28T10:58:50;20.15;;;12.23;;
32250;SDS011;41295;48.518;9.206;2023-02-28T11:00:56;21.45;;;11.20;;
32250;SDS011;41295;48.518;9.206;2023-02-28T11:03:00;18.50;;;11.05;;
32250;SDS011;41295;48.518;9.206;2023-02-28T11:05:04;17.83;;;10.95;;
32250;SDS011;41295;48.518;9.206;2023-02-28T11:07:26;21.58;;;12.57;;
32250;SDS011;41295;48.518;9.206;2023-02-28T11:09:41;18.17;;;11.43;;
32250;SDS011;41295;48.518;9.206;2023-02-28T11:11:48;18.05;;;11.63;;
32250;SDS011;41295;48.518;9.206;2023-02-28T11:13:52;19.58;;;12.05;;
32250;SDS011;41295;48.518;9.206;2023-02-28T11:15:58;17.15;;;10.85;;
32250;SDS011;41295;48.518;9.206;2023-02-28T11:18:17;19.50;;;11.23;;
32250;SDS011;41295;48.518;9.206;2023-02-28T11:20:26;17.80;;;10.85;;
32250;SDS011;41295;48.518;9.206;2023-02-28T11:22:31;16.75;;;11.40;;
32250;SDS011;41295;48.518;9.206;2023-02-28T11:24:37;26.17;;;11.52;;
32250;SDS011;41295;48.518;9.206;2023-02-28T11:26:46;20.20;;;11.05;;
32250;SDS011;41295;48.518;9.206;2023-02-28T11:28:49;20.23;;;11.57;;
32250;SDS011;41295;48.518;9.206;2023-02-28T11:31:18;18.50;;;10.73;;
32250;SDS011;41295;48.518;9.206;2023-02-28T11:33:24;21.50;;;11.55;;
32250;SDS011;41295;48.518;9.206;2023-02-28T11:35:31;20.30;;;11.00;;
32250;SDS011;41295;48.518;9.206;2023-02-28T11:37:37;18.88;;;11.55;;
32250;SDS011;41295;48.518;9.206;2023-02-28T11:39:40;17.70;;;11.45;;
32250;SDS011;41295;48.518;9.206;2023-02-28T11:41:49;21.67;;;11.82;;
32250;SDS011;41295;48.518;9.206;2023-02-28T11:44:14;22.75;;;12.23;;
32250;SDS011;41295;48.518;9.206;2023-02-28T11:46:35;20.10;;;11.02;;
32250;SDS011;41295;48.518;9.206;2023-02-28T11:48:46;22.23;;;11.82;;
32250;SDS011;41295;48.518;9.206;2023-02-28T11:51:00;17.88;;;11.25;;
32250;SDS011;41295;48.518;9.206;2023-02-28T11:53:11;20.17;;;11.55;;
32250;SDS011;41295;48.518;9.206;2023-02-28T11:55:24;19.27;;;11.52;;
32250;SDS011;41295;48.518;9.206;2023-02-28T11:57:32;21.88;;;11.43;;
32250;SDS011;41295;48.518;9.206;2023-02-28T11:59:45;21.33;;;11.90;;
32250;SDS011;41295;48.518;9.206;2023-02-28T12:02:05;20.98;;;11.38;;
32250;SDS011;41295;48.518;9.206;2023-02-28T12:04:24;21.13;;;11.10;;
32250;SDS011;41295;48.518;9.206;2023-02-28T12:06:36;20.75;;;12.15;;
32250;SDS011;41295;48.518;9.206;2023-02-28T12:08:49;23.50;;;11.77;;
32250;SDS011;41295;48.518;9.206;2023-02-28T12:11:03;19.15;;;11.15;;
32250;SDS011;41295;48.518;9.206;2023-02-28T12:13:16;22.73;;;11.73;;
32250;SDS011;41295;48.518;9.206;2023-02-28T12:15:27;19.23;;;11.43;;
32250;SDS011;41295;48.518;9.206;2023-02-28T12:17:48;17.65;;;12.02;;
32250;SDS011;41295;48.518;9.206;2023-02-28T12:20:02;19.38;;;12.07;;
32250;SDS011;41295;48.518;9.206;2023-02-28T12:22:14;19.67;;;11.98;;
32250;SDS011;41295;48.518;9.206;2023-02-28T12:24:35;17.98;;;11.32;;
32250;SDS011;41295;48.518;9.206;2023-02-28T12:26:51;21.88;;;12.27;;
32250;SDS011;41295;48.518;9.206;2023-02-28T12:28:57;20.02;;;11.73;;
32250;SDS011;41295;48.518;9.206;2023-02-28T12:31:09;21.75;;;12.55;;